SJV600 WIII-WALL
Flight info
| Callsign | SJV600 |
|---|---|
| Flight time | 1h 40m |
| Altitude | 37000 |
| Route | EGUKO T9 SILJA |
| Aircraft | A320/M-SDE3FGHIRWY/LB1 |
Departure
| Time | 2026-04-29 11:42 |
|---|---|
| Airport | Soekarno-Hatta International Airport (WIII) |
Arrival
| Time | 2026-04-29 13:23 |
|---|---|
| Airport | Sultan Aji Muhammad Sulaiman Sepinggan International Airport (WALL) |
| Time | Latitude | Longitude | Altitude | Speed | Heading |
|---|---|---|---|---|---|
| 2026-04-29 11:11 | -6.12089 | 106.65077 | 38 ft | 0 kts | 122° |
| 2026-04-29 11:31 | -6.12080 | 106.65063 | 38 ft | 4 kts | 119° |
| 2026-04-29 11:31 | -6.12068 | 106.65039 | 38 ft | 4 kts | 109° |
| 2026-04-29 11:31 | -6.12063 | 106.65013 | 38 ft | 4 kts | 75° |
| 2026-04-29 11:31 | -6.12072 | 106.65001 | 38 ft | 1 kts | 9° |
| 2026-04-29 11:32 | -6.12075 | 106.65000 | 33 ft | 0 kts | 9° |
| 2026-04-29 11:34 | -6.12072 | 106.65001 | 38 ft | 1 kts | 9° |
| 2026-04-29 11:34 | -6.12055 | 106.65003 | 34 ft | 4 kts | 9° |
| 2026-04-29 11:34 | -6.12022 | 106.65009 | 38 ft | 6 kts | 9° |
| 2026-04-29 11:35 | -6.11980 | 106.65015 | 38 ft | 5 kts | 5° |
| 2026-04-29 11:35 | -6.11939 | 106.65010 | 38 ft | 7 kts | 345° |
| 2026-04-29 11:35 | -6.11887 | 106.64988 | 38 ft | 9 kts | 319° |
| 2026-04-29 11:35 | -6.11875 | 106.64922 | 38 ft | 11 kts | 258° |
| 2026-04-29 11:36 | -6.11905 | 106.64842 | 36 ft | 14 kts | 247° |
| 2026-04-29 11:36 | -6.11944 | 106.64745 | 36 ft | 16 kts | 248° |
| 2026-04-29 11:36 | -6.11988 | 106.64635 | 37 ft | 18 kts | 249° |
| 2026-04-29 11:36 | -6.12039 | 106.64508 | 38 ft | 21 kts | 248° |
| 2026-04-29 11:37 | -6.12095 | 106.64365 | 37 ft | 23 kts | 248° |
| 2026-04-29 11:37 | -6.12158 | 106.64210 | 38 ft | 25 kts | 248° |
| 2026-04-29 11:37 | -6.12222 | 106.64051 | 36 ft | 18 kts | 248° |
| 2026-04-29 11:37 | -6.12248 | 106.63986 | 38 ft | 10 kts | 248° |
| 2026-04-29 11:38 | -6.12243 | 106.63913 | 36 ft | 12 kts | 296° |
| 2026-04-29 11:38 | -6.12212 | 106.63890 | 39 ft | 1 kts | 346° |
| 2026-04-29 11:38 | -6.12211 | 106.63890 | 39 ft | 0 kts | 346° |
| 2026-04-29 11:39 | -6.12209 | 106.63890 | 39 ft | 1 kts | 346° |
| 2026-04-29 11:39 | -6.12198 | 106.63887 | 39 ft | 3 kts | 346° |
| 2026-04-29 11:39 | -6.12174 | 106.63884 | 39 ft | 4 kts | 2° |
| 2026-04-29 11:39 | -6.12135 | 106.63892 | 39 ft | 7 kts | 8° |
| 2026-04-29 11:40 | -6.12089 | 106.63900 | 38 ft | 7 kts | 32° |
| 2026-04-29 11:40 | -6.12076 | 106.63923 | 38 ft | 0 kts | 66° |
| 2026-04-29 11:41 | -6.12013 | 106.64078 | 38 ft | 60 kts | 68° |
| 2026-04-29 11:41 | -6.11778 | 106.64668 | 38 ft | 119 kts | 68° |
| 2026-04-29 11:41 | -6.11415 | 106.65584 | 39 ft | 162 kts | 68° |
| 2026-04-29 11:42 | -6.10978 | 106.66678 | 465 ft | 168 kts | 68° |
| 2026-04-29 11:42 | -6.10544 | 106.67781 | 1077 ft | 171 kts | 68° |
| 2026-04-29 11:42 | -6.09929 | 106.68799 | 1693 ft | 171 kts | 49° |
| 2026-04-29 11:42 | -6.09068 | 106.69716 | 2019 ft | 190 kts | 44° |
| 2026-04-29 11:43 | -6.08078 | 106.70678 | 2333 ft | 207 kts | 43° |
| 2026-04-29 11:43 | -6.06972 | 106.71748 | 2646 ft | 229 kts | 44° |
| 2026-04-29 11:43 | -6.05834 | 106.72891 | 3469 ft | 232 kts | 45° |
| 2026-04-29 11:43 | -6.04713 | 106.74039 | 4325 ft | 233 kts | 45° |
| 2026-04-29 11:44 | -6.03562 | 106.75216 | 5124 ft | 239 kts | 45° |
| 2026-04-29 11:44 | -6.02383 | 106.76414 | 5935 ft | 242 kts | 45° |
| 2026-04-29 11:44 | -6.01198 | 106.77617 | 6824 ft | 242 kts | 45° |
| 2026-04-29 11:44 | -6.00016 | 106.78819 | 7705 ft | 242 kts | 45° |
| 2026-04-29 11:45 | -5.98811 | 106.80050 | 8369 ft | 252 kts | 45° |
| 2026-04-29 11:45 | -5.97585 | 106.81321 | 9178 ft | 254 kts | 46° |
| 2026-04-29 11:45 | -5.96354 | 106.82631 | 9806 ft | 267 kts | 49° |
| 2026-04-29 11:45 | -5.95315 | 106.84257 | 10150 ft | 287 kts | 61° |
| 2026-04-29 11:46 | -5.94326 | 106.86088 | 10458 ft | 309 kts | 61° |
| 2026-04-29 11:46 | -5.93262 | 106.88053 | 10768 ft | 328 kts | 61° |
| 2026-04-29 11:46 | -5.92152 | 106.90087 | 11389 ft | 335 kts | 61° |
| 2026-04-29 11:46 | -5.91025 | 106.92145 | 12082 ft | 339 kts | 61° |
| 2026-04-29 11:47 | -5.89878 | 106.94235 | 12754 ft | 342 kts | 61° |
| 2026-04-29 11:47 | -5.88747 | 106.96291 | 13430 ft | 346 kts | 61° |
| 2026-04-29 11:47 | -5.87556 | 106.98445 | 13947 ft | 352 kts | 59° |
| 2026-04-29 11:47 | -5.86298 | 107.00568 | 14533 ft | 355 kts | 57° |
| 2026-04-29 11:48 | -5.84972 | 107.02668 | 15123 ft | 357 kts | 57° |
| 2026-04-29 11:48 | -5.83604 | 107.04765 | 15711 ft | 359 kts | 56° |
| 2026-04-29 11:48 | -5.82223 | 107.06866 | 16281 ft | 362 kts | 56° |
| 2026-04-29 11:48 | -5.80836 | 107.08989 | 16831 ft | 365 kts | 57° |
| 2026-04-29 11:49 | -5.79449 | 107.11137 | 17369 ft | 368 kts | 57° |
| 2026-04-29 11:49 | -5.78068 | 107.13304 | 17904 ft | 370 kts | 57° |
| 2026-04-29 11:49 | -5.76681 | 107.15496 | 18423 ft | 373 kts | 58° |
| 2026-04-29 11:49 | -5.75288 | 107.17706 | 18927 ft | 376 kts | 58° |
| 2026-04-29 11:50 | -5.73880 | 107.19935 | 19421 ft | 379 kts | 58° |
| 2026-04-29 11:50 | -5.72464 | 107.22178 | 19909 ft | 382 kts | 58° |
| 2026-04-29 11:50 | -5.71033 | 107.24442 | 20364 ft | 385 kts | 58° |
| 2026-04-29 11:50 | -5.69595 | 107.26723 | 20827 ft | 388 kts | 58° |
| 2026-04-29 11:51 | -5.68143 | 107.29022 | 21275 ft | 391 kts | 58° |
| 2026-04-29 11:51 | -5.66699 | 107.31304 | 21698 ft | 394 kts | 58° |
| 2026-04-29 11:51 | -5.65205 | 107.33661 | 22141 ft | 397 kts | 57° |
| 2026-04-29 11:51 | -5.63737 | 107.35973 | 22562 ft | 399 kts | 57° |
| 2026-04-29 11:52 | -5.62240 | 107.38333 | 22977 ft | 402 kts | 58° |
| 2026-04-29 11:52 | -5.60735 | 107.40714 | 23365 ft | 405 kts | 58° |
| 2026-04-29 11:52 | -5.59221 | 107.43108 | 23784 ft | 407 kts | 58° |
| 2026-04-29 11:52 | -5.57697 | 107.45507 | 24182 ft | 409 kts | 58° |
| 2026-04-29 11:53 | -5.56162 | 107.47918 | 24549 ft | 411 kts | 58° |
| 2026-04-29 11:53 | -5.54620 | 107.50343 | 24909 ft | 414 kts | 58° |
| 2026-04-29 11:53 | -5.53069 | 107.52792 | 25247 ft | 416 kts | 58° |
| 2026-04-29 11:53 | -5.51509 | 107.55260 | 25587 ft | 419 kts | 58° |
| 2026-04-29 11:54 | -5.49944 | 107.57733 | 25923 ft | 422 kts | 58° |
| 2026-04-29 11:54 | -5.48363 | 107.60227 | 26253 ft | 424 kts | 58° |
| 2026-04-29 11:54 | -5.46777 | 107.62728 | 26570 ft | 426 kts | 58° |
| 2026-04-29 11:54 | -5.45178 | 107.65248 | 26874 ft | 429 kts | 58° |
| 2026-04-29 11:55 | -5.43590 | 107.67746 | 27163 ft | 431 kts | 58° |
| 2026-04-29 11:55 | -5.41971 | 107.70292 | 27451 ft | 434 kts | 58° |
| 2026-04-29 11:55 | -5.40343 | 107.72852 | 27751 ft | 436 kts | 58° |
| 2026-04-29 11:55 | -5.38710 | 107.75427 | 28031 ft | 438 kts | 58° |
| 2026-04-29 11:56 | -5.37066 | 107.78019 | 28309 ft | 441 kts | 58° |
| 2026-04-29 11:56 | -5.35416 | 107.80619 | 28598 ft | 443 kts | 58° |
| 2026-04-29 11:56 | -5.33758 | 107.83233 | 28890 ft | 445 kts | 58° |
| 2026-04-29 11:56 | -5.32090 | 107.85866 | 29179 ft | 448 kts | 58° |
| 2026-04-29 11:57 | -5.30412 | 107.88509 | 29470 ft | 450 kts | 58° |
| 2026-04-29 11:57 | -5.28729 | 107.91162 | 29750 ft | 453 kts | 58° |
| 2026-04-29 11:57 | -5.27033 | 107.93833 | 30024 ft | 455 kts | 58° |
| 2026-04-29 11:57 | -5.25328 | 107.96517 | 30289 ft | 457 kts | 58° |
| 2026-04-29 11:58 | -5.23615 | 107.99213 | 30554 ft | 459 kts | 58° |
| 2026-04-29 11:58 | -5.21891 | 108.01921 | 30817 ft | 461 kts | 58° |
| 2026-04-29 11:58 | -5.20166 | 108.04629 | 31174 ft | 460 kts | 58° |
| 2026-04-29 11:58 | -5.18442 | 108.07335 | 31550 ft | 460 kts | 58° |
| 2026-04-29 11:59 | -5.16722 | 108.10036 | 31912 ft | 459 kts | 58° |
| 2026-04-29 11:59 | -5.15006 | 108.12736 | 32286 ft | 459 kts | 58° |
| 2026-04-29 11:59 | -5.13295 | 108.15432 | 32654 ft | 458 kts | 58° |
| 2026-04-29 11:59 | -5.11585 | 108.18130 | 33022 ft | 457 kts | 58° |
| 2026-04-29 12:00 | -5.09880 | 108.20819 | 33379 ft | 457 kts | 58° |
| 2026-04-29 12:00 | -5.08171 | 108.23508 | 33709 ft | 456 kts | 58° |
| 2026-04-29 12:00 | -5.06462 | 108.26187 | 34024 ft | 456 kts | 58° |
| 2026-04-29 12:00 | -5.04751 | 108.28868 | 34355 ft | 455 kts | 58° |
| 2026-04-29 12:01 | -5.03068 | 108.31509 | 34672 ft | 455 kts | 58° |
| 2026-04-29 12:01 | -5.01366 | 108.34179 | 35005 ft | 454 kts | 58° |
| 2026-04-29 12:01 | -4.99670 | 108.36843 | 35308 ft | 453 kts | 58° |
| 2026-04-29 12:01 | -4.97978 | 108.39501 | 35614 ft | 452 kts | 58° |
| 2026-04-29 12:02 | -4.96289 | 108.42155 | 35910 ft | 451 kts | 58° |
| 2026-04-29 12:02 | -4.94605 | 108.44803 | 36195 ft | 450 kts | 58° |
| 2026-04-29 12:02 | -4.92927 | 108.47443 | 36525 ft | 447 kts | 58° |
| 2026-04-29 12:02 | -4.91256 | 108.50068 | 36798 ft | 446 kts | 59° |
| 2026-04-29 12:03 | -4.87922 | 108.55312 | 36865 ft | 446 kts | 59° |
| 2026-04-29 12:03 | -4.84581 | 108.60546 | 36865 ft | 446 kts | 58° |
| 2026-04-29 12:04 | -4.81201 | 108.65846 | 36865 ft | 456 kts | 59° |
| 2026-04-29 12:04 | -4.77753 | 108.71269 | 36866 ft | 466 kts | 58° |
| 2026-04-29 12:05 | -4.74239 | 108.76773 | 36866 ft | 470 kts | 58° |
| 2026-04-29 12:05 | -4.70825 | 108.82354 | 36864 ft | 469 kts | 65° |
| 2026-04-29 12:06 | -4.68025 | 108.88256 | 36865 ft | 469 kts | 65° |
| 2026-04-29 12:06 | -4.65212 | 108.94167 | 36865 ft | 469 kts | 65° |
| 2026-04-29 12:07 | -4.62423 | 109.00031 | 36867 ft | 469 kts | 65° |
| 2026-04-29 12:07 | -4.59613 | 109.05943 | 36868 ft | 469 kts | 65° |
| 2026-04-29 12:08 | -4.56801 | 109.11845 | 36868 ft | 469 kts | 65° |
| 2026-04-29 12:08 | -4.53988 | 109.17755 | 36867 ft | 469 kts | 65° |
| 2026-04-29 12:09 | -4.51180 | 109.23657 | 36868 ft | 469 kts | 65° |
| 2026-04-29 12:09 | -4.48364 | 109.29567 | 36868 ft | 469 kts | 65° |
| 2026-04-29 12:10 | -4.45550 | 109.35465 | 36867 ft | 469 kts | 65° |
| 2026-04-29 12:10 | -4.42736 | 109.41373 | 36867 ft | 469 kts | 65° |
| 2026-04-29 12:11 | -4.39922 | 109.47278 | 36868 ft | 469 kts | 65° |
| 2026-04-29 12:11 | -4.37125 | 109.53139 | 36868 ft | 469 kts | 65° |
| 2026-04-29 12:12 | -4.34313 | 109.59039 | 36868 ft | 469 kts | 65° |
| 2026-04-29 12:12 | -4.31500 | 109.64939 | 36865 ft | 469 kts | 65° |
| 2026-04-29 12:13 | -4.28691 | 109.70835 | 36865 ft | 469 kts | 65° |
| 2026-04-29 12:13 | -4.25877 | 109.76734 | 36865 ft | 469 kts | 65° |
| 2026-04-29 12:14 | -4.23068 | 109.82629 | 36866 ft | 469 kts | 65° |
| 2026-04-29 12:14 | -4.20252 | 109.88524 | 36866 ft | 469 kts | 65° |
| 2026-04-29 12:15 | -4.17435 | 109.94413 | 36866 ft | 469 kts | 65° |
| 2026-04-29 12:15 | -4.14619 | 110.00304 | 36868 ft | 469 kts | 65° |
| 2026-04-29 12:16 | -4.11805 | 110.06190 | 36868 ft | 469 kts | 65° |
| 2026-04-29 12:16 | -4.08993 | 110.12087 | 36868 ft | 469 kts | 65° |
| 2026-04-29 12:17 | -4.06197 | 110.17942 | 36868 ft | 469 kts | 65° |
| 2026-04-29 12:17 | -4.03377 | 110.23837 | 36866 ft | 469 kts | 65° |
| 2026-04-29 12:18 | -4.00555 | 110.29728 | 36866 ft | 469 kts | 65° |
| 2026-04-29 12:18 | -3.97737 | 110.35623 | 36866 ft | 469 kts | 65° |
| 2026-04-29 12:19 | -3.94916 | 110.41525 | 36868 ft | 469 kts | 65° |
| 2026-04-29 12:19 | -3.92101 | 110.47421 | 36868 ft | 469 kts | 65° |
| 2026-04-29 12:20 | -3.89283 | 110.53314 | 36868 ft | 469 kts | 65° |
| 2026-04-29 12:20 | -3.86458 | 110.59207 | 36868 ft | 469 kts | 65° |
| 2026-04-29 12:21 | -3.83632 | 110.65099 | 36869 ft | 469 kts | 65° |
| 2026-04-29 12:21 | -3.80807 | 110.70989 | 36870 ft | 469 kts | 65° |
| 2026-04-29 12:22 | -3.77986 | 110.76884 | 36869 ft | 469 kts | 65° |
| 2026-04-29 12:22 | -3.75168 | 110.82769 | 36885 ft | 468 kts | 64° |
| 2026-04-29 12:23 | -3.72358 | 110.88634 | 36886 ft | 467 kts | 64° |
| 2026-04-29 12:23 | -3.69546 | 110.94488 | 36883 ft | 466 kts | 64° |
| 2026-04-29 12:24 | -3.66741 | 111.00325 | 36883 ft | 465 kts | 64° |
| 2026-04-29 12:24 | -3.63942 | 111.06174 | 36878 ft | 465 kts | 64° |
| 2026-04-29 12:25 | -3.61146 | 111.12006 | 36873 ft | 465 kts | 64° |
| 2026-04-29 12:26 | -3.57412 | 111.19778 | 36877 ft | 465 kts | 64° |
| 2026-04-29 12:26 | -3.54616 | 111.25612 | 36874 ft | 465 kts | 64° |
| 2026-04-29 12:27 | -3.51370 | 111.32389 | 36873 ft | 465 kts | 64° |
| 2026-04-29 12:27 | -3.49019 | 111.37274 | 36867 ft | 464 kts | 64° |
| 2026-04-29 12:28 | -3.46226 | 111.43093 | 36865 ft | 464 kts | 65° |
| 2026-04-29 12:28 | -3.43445 | 111.48883 | 36866 ft | 465 kts | 65° |
| 2026-04-29 12:29 | -3.40645 | 111.54721 | 36865 ft | 465 kts | 65° |
| 2026-04-29 12:29 | -3.37842 | 111.60555 | 36866 ft | 465 kts | 65° |
| 2026-04-29 12:30 | -3.35037 | 111.66390 | 36867 ft | 465 kts | 65° |
| 2026-04-29 12:30 | -3.32232 | 111.72225 | 36868 ft | 465 kts | 65° |
| 2026-04-29 12:31 | -3.29426 | 111.78060 | 36869 ft | 465 kts | 65° |
| 2026-04-29 12:31 | -3.26622 | 111.83900 | 36870 ft | 465 kts | 65° |
| 2026-04-29 12:32 | -3.23816 | 111.89735 | 36871 ft | 465 kts | 65° |
| 2026-04-29 12:32 | -3.21003 | 111.95576 | 36871 ft | 465 kts | 65° |
| 2026-04-29 12:33 | -3.18195 | 112.01413 | 36872 ft | 466 kts | 65° |
| 2026-04-29 12:33 | -3.15389 | 112.07258 | 36872 ft | 466 kts | 65° |
| 2026-04-29 12:34 | -3.12580 | 112.13094 | 36873 ft | 466 kts | 65° |
| 2026-04-29 12:34 | -3.09770 | 112.18928 | 36872 ft | 466 kts | 65° |
| 2026-04-29 12:35 | -3.06981 | 112.24723 | 36872 ft | 466 kts | 65° |
| 2026-04-29 12:35 | -3.04172 | 112.30567 | 36873 ft | 466 kts | 66° |
| 2026-04-29 12:36 | -3.01609 | 112.36508 | 36872 ft | 465 kts | 69° |
| 2026-04-29 12:36 | -2.99317 | 112.42558 | 36873 ft | 465 kts | 70° |
| 2026-04-29 12:37 | -2.97033 | 112.48613 | 36873 ft | 465 kts | 70° |
| 2026-04-29 12:37 | -2.94667 | 112.54630 | 36873 ft | 465 kts | 69° |
| 2026-04-29 12:38 | -2.92262 | 112.60638 | 36873 ft | 465 kts | 69° |
| 2026-04-29 12:38 | -2.89876 | 112.66655 | 36873 ft | 465 kts | 69° |
| 2026-04-29 12:39 | -2.87501 | 112.72671 | 36874 ft | 465 kts | 69° |
| 2026-04-29 12:39 | -2.85127 | 112.78690 | 36873 ft | 465 kts | 69° |
| 2026-04-29 12:40 | -2.82764 | 112.84665 | 36874 ft | 465 kts | 69° |
| 2026-04-29 12:40 | -2.80379 | 112.90688 | 36874 ft | 465 kts | 69° |
| 2026-04-29 12:41 | -2.78003 | 112.96705 | 36874 ft | 465 kts | 69° |
| 2026-04-29 12:41 | -2.75623 | 113.02722 | 36874 ft | 465 kts | 69° |
| 2026-04-29 12:42 | -2.73235 | 113.08736 | 36873 ft | 465 kts | 69° |
| 2026-04-29 12:42 | -2.70842 | 113.14750 | 36871 ft | 465 kts | 69° |
| 2026-04-29 12:43 | -2.68457 | 113.20777 | 36865 ft | 466 kts | 69° |
| 2026-04-29 12:43 | -2.66077 | 113.26810 | 36866 ft | 466 kts | 69° |
| 2026-04-29 12:44 | -2.63697 | 113.32808 | 36867 ft | 467 kts | 69° |
| 2026-04-29 12:44 | -2.61302 | 113.38842 | 36869 ft | 467 kts | 68° |
| 2026-04-29 12:45 | -2.58073 | 113.44476 | 36870 ft | 468 kts | 57° |
| 2026-04-29 12:45 | -2.54495 | 113.49901 | 36870 ft | 468 kts | 57° |
| 2026-04-29 12:46 | -2.50911 | 113.55345 | 36872 ft | 468 kts | 57° |
| 2026-04-29 12:46 | -2.47345 | 113.60791 | 36872 ft | 468 kts | 58° |
| 2026-04-29 12:47 | -2.43770 | 113.66241 | 36872 ft | 468 kts | 57° |
| 2026-04-29 12:47 | -2.40204 | 113.71661 | 36872 ft | 468 kts | 57° |
| 2026-04-29 12:48 | -2.36626 | 113.77105 | 36874 ft | 468 kts | 57° |
| 2026-04-29 12:48 | -2.33049 | 113.82550 | 36889 ft | 467 kts | 57° |
| 2026-04-29 12:49 | -2.29482 | 113.87963 | 36890 ft | 465 kts | 57° |
| 2026-04-29 12:49 | -2.25958 | 113.93328 | 36885 ft | 464 kts | 57° |
| 2026-04-29 12:50 | -2.23045 | 113.99060 | 36884 ft | 462 kts | 67° |
| 2026-04-29 12:50 | -2.20462 | 114.04947 | 36887 ft | 462 kts | 67° |
| 2026-04-29 12:51 | -2.17879 | 114.10823 | 36882 ft | 462 kts | 67° |
| 2026-04-29 12:51 | -2.15302 | 114.16709 | 36879 ft | 462 kts | 67° |
| 2026-04-29 12:52 | -2.12724 | 114.22588 | 36879 ft | 462 kts | 67° |
| 2026-04-29 12:52 | -2.10142 | 114.28469 | 36878 ft | 462 kts | 67° |
| 2026-04-29 12:53 | -2.07556 | 114.34351 | 36874 ft | 462 kts | 67° |
| 2026-04-29 12:53 | -2.04972 | 114.40230 | 36873 ft | 462 kts | 67° |
| 2026-04-29 12:54 | -2.02383 | 114.46110 | 36875 ft | 462 kts | 67° |
| 2026-04-29 12:54 | -1.99814 | 114.51964 | 36874 ft | 462 kts | 67° |
| 2026-04-29 12:55 | -1.97232 | 114.57852 | 36875 ft | 463 kts | 67° |
| 2026-04-29 12:55 | -1.94643 | 114.63745 | 36876 ft | 463 kts | 67° |
| 2026-04-29 12:56 | -1.92053 | 114.69631 | 36878 ft | 463 kts | 67° |
| 2026-04-29 12:56 | -1.89458 | 114.75521 | 36877 ft | 463 kts | 67° |
| 2026-04-29 12:57 | -1.86873 | 114.81412 | 36878 ft | 462 kts | 67° |
| 2026-04-29 12:57 | -1.84291 | 114.87297 | 36873 ft | 462 kts | 67° |
| 2026-04-29 12:58 | -1.81705 | 114.93186 | 36870 ft | 462 kts | 67° |
| 2026-04-29 12:58 | -1.79114 | 114.99067 | 36864 ft | 459 kts | 67° |
| 2026-04-29 12:58 | -1.77842 | 115.01953 | 36726 ft | 451 kts | 67° |
| 2026-04-29 12:59 | -1.76572 | 115.04836 | 35937 ft | 455 kts | 67° |
| 2026-04-29 12:59 | -1.75296 | 115.07736 | 35300 ft | 455 kts | 67° |
| 2026-04-29 12:59 | -1.74036 | 115.10601 | 34600 ft | 457 kts | 67° |
| 2026-04-29 12:59 | -1.72793 | 115.13432 | 33856 ft | 463 kts | 67° |
| 2026-04-29 13:00 | -1.71916 | 115.15428 | 33548 ft | 467 kts | 67° |
| 2026-04-29 13:00 | -1.70183 | 115.19377 | 32848 ft | 467 kts | 67° |
| 2026-04-29 13:00 | -1.68873 | 115.22357 | 32285 ft | 472 kts | 68° |
| 2026-04-29 13:00 | -1.67633 | 115.25391 | 31717 ft | 472 kts | 70° |
| 2026-04-29 13:01 | -1.66512 | 115.28467 | 31169 ft | 470 kts | 72° |
| 2026-04-29 13:01 | -1.65465 | 115.31586 | 30607 ft | 475 kts | 72° |
| 2026-04-29 13:01 | -1.64450 | 115.34715 | 30062 ft | 473 kts | 73° |
| 2026-04-29 13:01 | -1.63432 | 115.37839 | 29518 ft | 474 kts | 72° |
| 2026-04-29 13:02 | -1.62387 | 115.40981 | 28988 ft | 477 kts | 72° |
| 2026-04-29 13:02 | -1.61316 | 115.44105 | 28461 ft | 474 kts | 71° |
| 2026-04-29 13:02 | -1.60232 | 115.47202 | 27946 ft | 468 kts | 71° |
| 2026-04-29 13:02 | -1.59156 | 115.50249 | 27435 ft | 463 kts | 71° |
| 2026-04-29 13:03 | -1.58088 | 115.53274 | 26940 ft | 462 kts | 71° |
| 2026-04-29 13:03 | -1.57014 | 115.56328 | 26414 ft | 468 kts | 71° |
| 2026-04-29 13:03 | -1.55943 | 115.59395 | 25922 ft | 466 kts | 71° |
| 2026-04-29 13:03 | -1.54881 | 115.62446 | 25385 ft | 467 kts | 71° |
| 2026-04-29 13:04 | -1.53808 | 115.65533 | 24837 ft | 475 kts | 71° |
| 2026-04-29 13:04 | -1.52731 | 115.68633 | 24273 ft | 479 kts | 71° |
| 2026-04-29 13:04 | -1.51638 | 115.71779 | 23700 ft | 478 kts | 71° |
| 2026-04-29 13:04 | -1.50551 | 115.74903 | 23107 ft | 475 kts | 71° |
| 2026-04-29 13:05 | -1.49474 | 115.78007 | 22520 ft | 471 kts | 71° |
| 2026-04-29 13:05 | -1.48405 | 115.81092 | 21930 ft | 467 kts | 71° |
| 2026-04-29 13:05 | -1.47343 | 115.84144 | 21350 ft | 462 kts | 71° |
| 2026-04-29 13:05 | -1.46290 | 115.87163 | 20763 ft | 458 kts | 71° |
| 2026-04-29 13:06 | -1.45244 | 115.90160 | 20182 ft | 455 kts | 71° |
| 2026-04-29 13:06 | -1.44209 | 115.93130 | 19597 ft | 451 kts | 71° |
| 2026-04-29 13:06 | -1.43184 | 115.96075 | 19028 ft | 447 kts | 71° |
| 2026-04-29 13:06 | -1.42166 | 115.99002 | 18598 ft | 445 kts | 71° |
| 2026-04-29 13:07 | -1.41151 | 116.01918 | 18059 ft | 443 kts | 71° |
| 2026-04-29 13:07 | -1.40144 | 116.04806 | 17488 ft | 437 kts | 71° |
| 2026-04-29 13:07 | -1.39149 | 116.07661 | 16947 ft | 433 kts | 71° |
| 2026-04-29 13:07 | -1.38477 | 116.10577 | 15856 ft | 429 kts | 85° |
| 2026-04-29 13:08 | -1.38614 | 116.13463 | 14741 ft | 418 kts | 100° |
| 2026-04-29 13:08 | -1.39511 | 116.16203 | 13641 ft | 413 kts | 113° |
| 2026-04-29 13:08 | -1.40676 | 116.18822 | 12992 ft | 411 kts | 113° |
| 2026-04-29 13:08 | -1.41828 | 116.21425 | 12527 ft | 409 kts | 113° |
| 2026-04-29 13:09 | -1.42964 | 116.24030 | 12020 ft | 407 kts | 110° |
| 2026-04-29 13:09 | -1.43875 | 116.26692 | 11505 ft | 404 kts | 107° |
| 2026-04-29 13:09 | -1.44701 | 116.29351 | 11014 ft | 394 kts | 106° |
| 2026-04-29 13:09 | -1.45445 | 116.31870 | 10652 ft | 362 kts | 105° |
| 2026-04-29 13:10 | -1.46117 | 116.34186 | 10457 ft | 333 kts | 105° |
| 2026-04-29 13:10 | -1.46737 | 116.36321 | 10330 ft | 307 kts | 105° |
| 2026-04-29 13:10 | -1.47320 | 116.38316 | 9984 ft | 293 kts | 105° |
| 2026-04-29 13:10 | -1.47892 | 116.40250 | 9432 ft | 288 kts | 106° |
| 2026-04-29 13:11 | -1.48462 | 116.42159 | 8836 ft | 285 kts | 106° |
| 2026-04-29 13:11 | -1.49029 | 116.44052 | 8244 ft | 283 kts | 106° |
| 2026-04-29 13:11 | -1.49589 | 116.45923 | 7797 ft | 282 kts | 106° |
| 2026-04-29 13:11 | -1.49778 | 116.46554 | 7667 ft | 282 kts | 105° |
| 2026-04-29 13:12 | -1.50340 | 116.48431 | 7293 ft | 282 kts | 105° |
| 2026-04-29 13:12 | -1.50902 | 116.50300 | 6925 ft | 280 kts | 105° |
| 2026-04-29 13:12 | -1.51445 | 116.52110 | 6564 ft | 279 kts | 105° |
| 2026-04-29 13:12 | -1.51852 | 116.53992 | 6199 ft | 276 kts | 93° |
| 2026-04-29 13:13 | -1.51731 | 116.55866 | 5906 ft | 274 kts | 77° |
| 2026-04-29 13:13 | -1.51125 | 116.57696 | 5703 ft | 275 kts | 68° |
| 2026-04-29 13:13 | -1.50437 | 116.59478 | 5488 ft | 274 kts | 68° |
| 2026-04-29 13:13 | -1.49784 | 116.61185 | 5287 ft | 258 kts | 69° |
| 2026-04-29 13:14 | -1.49157 | 116.62828 | 5073 ft | 251 kts | 69° |
| 2026-04-29 13:14 | -1.48544 | 116.64429 | 4875 ft | 240 kts | 68° |
| 2026-04-29 13:14 | -1.47964 | 116.65942 | 4688 ft | 225 kts | 68° |
| 2026-04-29 13:14 | -1.47420 | 116.67361 | 4519 ft | 215 kts | 68° |
| 2026-04-29 13:15 | -1.46893 | 116.68741 | 4352 ft | 209 kts | 69° |
| 2026-04-29 13:15 | -1.46383 | 116.70078 | 4190 ft | 204 kts | 68° |
| 2026-04-29 13:15 | -1.45877 | 116.71396 | 4028 ft | 202 kts | 68° |
| 2026-04-29 13:15 | -1.45254 | 116.72647 | 3871 ft | 201 kts | 52° |
| 2026-04-29 13:16 | -1.44221 | 116.73575 | 3715 ft | 201 kts | 30° |
| 2026-04-29 13:16 | -1.43375 | 116.73940 | 3600 ft | 201 kts | 15° |
| 2026-04-29 13:16 | -1.41520 | 116.73976 | 3365 ft | 203 kts | 346° |
| 2026-04-29 13:16 | -1.40641 | 116.73657 | 3242 ft | 203 kts | 338° |
| 2026-04-29 13:17 | -1.39337 | 116.73107 | 3063 ft | 204 kts | 339° |
| 2026-04-29 13:17 | -1.38029 | 116.72560 | 2889 ft | 203 kts | 339° |
| 2026-04-29 13:17 | -1.36696 | 116.72126 | 2701 ft | 200 kts | 357° |
| 2026-04-29 13:17 | -1.35348 | 116.72344 | 2555 ft | 197 kts | 26° |
| 2026-04-29 13:18 | -1.34322 | 116.73158 | 2458 ft | 182 kts | 54° |
| 2026-04-29 13:18 | -1.33741 | 116.74197 | 2373 ft | 162 kts | 62° |
| 2026-04-29 13:18 | -1.33238 | 116.75160 | 2330 ft | 149 kts | 62° |
| 2026-04-29 13:18 | -1.32768 | 116.76057 | 2254 ft | 143 kts | 62° |
| 2026-04-29 13:19 | -1.32310 | 116.76931 | 2192 ft | 141 kts | 62° |
| 2026-04-29 13:19 | -1.31858 | 116.77796 | 2131 ft | 140 kts | 62° |
| 2026-04-29 13:19 | -1.31408 | 116.78659 | 2067 ft | 140 kts | 62° |
| 2026-04-29 13:19 | -1.30999 | 116.79543 | 1917 ft | 140 kts | 66° |
| 2026-04-29 13:20 | -1.30619 | 116.80437 | 1726 ft | 139 kts | 66° |
| 2026-04-29 13:20 | -1.30241 | 116.81326 | 1551 ft | 139 kts | 66° |
| 2026-04-29 13:20 | -1.29865 | 116.82211 | 1375 ft | 138 kts | 66° |
| 2026-04-29 13:20 | -1.29492 | 116.83096 | 1164 ft | 138 kts | 66° |
| 2026-04-29 13:21 | -1.29108 | 116.83971 | 1002 ft | 137 kts | 67° |
| 2026-04-29 13:21 | -1.28746 | 116.84842 | 824 ft | 138 kts | 66° |
| 2026-04-29 13:21 | -1.28381 | 116.85723 | 635 ft | 137 kts | 67° |
| 2026-04-29 13:21 | -1.28035 | 116.86620 | 409 ft | 138 kts | 68° |
| 2026-04-29 13:22 | -1.27654 | 116.87490 | 278 ft | 137 kts | 65° |
| 2026-04-29 13:22 | -1.27286 | 116.88372 | 103 ft | 138 kts | 66° |
| 2026-04-29 13:22 | -1.26910 | 116.89215 | 23 ft | 118 kts | 68° |
| 2026-04-29 13:22 | -1.26674 | 116.89833 | 22 ft | 71 kts | 67° |
| 2026-04-29 13:23 | -1.26548 | 116.90128 | 20 ft | 22 kts | 67° |
| 2026-04-29 13:23 | -1.26501 | 116.90241 | 23 ft | 11 kts | 67° |
| 2026-04-29 13:23 | -1.26475 | 116.90302 | 22 ft | 11 kts | 67° |
| 2026-04-29 13:23 | -1.26443 | 116.90379 | 24 ft | 14 kts | 67° |
| 2026-04-29 13:24 | -1.26385 | 116.90458 | 22 ft | 14 kts | 31° |
| 2026-04-29 13:24 | -1.26286 | 116.90446 | 24 ft | 17 kts | 323° |
| 2026-04-29 13:24 | -1.26283 | 116.90328 | 21 ft | 20 kts | 248° |
| 2026-04-29 13:24 | -1.26339 | 116.90193 | 21 ft | 23 kts | 247° |
| 2026-04-29 13:25 | -1.26373 | 116.90087 | 21 ft | 11 kts | 276° |
| 2026-04-29 13:25 | -1.26352 | 116.89952 | 22 ft | 7 kts | 248° |
| 2026-04-29 13:25 | -1.26370 | 116.89907 | 21 ft | 6 kts | 247° |
| 2026-04-29 13:26 | -1.26386 | 116.89870 | 21 ft | 7 kts | 247° |
| 2026-04-29 13:26 | -1.26383 | 116.89833 | 21 ft | 6 kts | 312° |
| 2026-04-29 13:26 | -1.26341 | 116.89816 | 23 ft | 2 kts | 338° |
| 2026-04-29 13:26 | -1.26334 | 116.89814 | 22 ft | 0 kts | 339° |
| 2026-04-29 13:27 | -1.26329 | 116.89812 | 21 ft | 1 kts | 339° |
| 2026-04-29 13:27 | -1.26326 | 116.89811 | 21 ft | 0 kts | 339° |